createdAt,value
2023-01-29T00:00:36.857Z,95.20
2023-01-29T00:05:39.935Z,94.98
2023-01-29T00:10:42.831Z,95.29
2023-01-29T00:15:55.946Z,95.51
2023-01-29T00:20:59.167Z,95.63
2023-01-29T00:26:02.410Z,95.66
2023-01-29T00:31:14.469Z,96.05
2023-01-29T00:36:20.604Z,96.33
2023-01-29T00:41:42.499Z,96.50
2023-01-29T00:46:48.327Z,96.76
2023-01-29T00:52:10.098Z,97.17
2023-01-29T00:57:13.142Z,98.34
2023-01-29T01:02:36.299Z,98.56
2023-01-29T01:07:39.283Z,98.62
2023-01-29T01:12:42.321Z,98.77
2023-01-29T01:17:45.625Z,98.82
2023-01-29T01:22:48.809Z,99.09
2023-01-29T01:33:01.729Z,99.39
2023-01-29T01:38:04.644Z,99.47
2023-01-29T01:43:10.510Z,99.76
2023-01-29T01:48:21.374Z,99.68
2023-01-29T01:53:30.730Z,99.41
2023-01-29T01:58:42.555Z,99.81
2023-01-29T02:04:14.253Z,99.81
2023-01-29T02:09:35.603Z,99.62
2023-01-29T02:14:40.531Z,99.70
2023-01-29T02:20:17.642Z,99.95
2023-01-29T02:26:00.261Z,99.86
2023-01-29T02:31:27.712Z,100.00
2023-01-29T02:37:07.301Z,100.00
2023-01-29T02:42:31.144Z,100.00
2023-01-29T02:47:50.073Z,100.00
2023-01-29T02:53:14.985Z,100.00
2023-01-29T02:58:43.962Z,100.00
2023-01-29T03:03:53.446Z,100.00
2023-01-29T03:09:20.647Z,100.00
2023-01-29T03:15:01.515Z,100.00
2023-01-29T03:20:09.152Z,100.00
2023-01-29T03:25:33.538Z,100.00
2023-01-29T03:31:03.905Z,100.00
2023-01-29T03:36:17.152Z,100.00
2023-01-29T03:41:33.392Z,100.00
2023-01-29T03:46:51.159Z,100.00
2023-01-29T03:52:10.027Z,100.00
2023-01-29T03:57:50.187Z,100.00
2023-01-29T04:03:17.245Z,100.00
2023-01-29T04:08:29.626Z,100.00
2023-01-29T04:13:33.975Z,100.00
2023-01-29T04:18:37.445Z,100.00
2023-01-29T04:23:40.519Z,100.00
2023-01-29T04:28:52.438Z,99.70
2023-01-29T04:34:32.194Z,99.46
2023-01-29T04:39:56.207Z,98.87
2023-01-29T04:45:04.809Z,98.39
2023-01-29T04:50:32.813Z,98.02
2023-01-29T04:56:06.318Z,98.32
2023-01-29T05:01:16.587Z,97.72
2023-01-29T05:06:22.022Z,97.52
2023-01-29T05:11:26.059Z,97.44
2023-01-29T05:16:42.137Z,97.02
2023-01-29T05:21:49.320Z,96.71
2023-01-29T05:27:13.283Z,95.74
2023-01-29T05:32:16.949Z,95.35
2023-01-29T05:37:19.795Z,94.94
2023-01-29T05:42:23.077Z,94.50
2023-01-29T05:47:26.115Z,94.10
2023-01-29T05:52:28.972Z,93.97
2023-01-29T05:57:31.848Z,93.91
2023-01-29T06:02:34.884Z,93.70
2023-01-29T06:07:41.723Z,93.37
2023-01-29T06:12:46.669Z,93.78
2023-01-29T06:17:49.415Z,93.48
2023-01-29T06:22:52.362Z,93.73
2023-01-29T06:27:57.092Z,93.49
2023-01-29T06:33:02.246Z,93.68
2023-01-29T06:38:05.674Z,93.33
2023-01-29T06:43:08.677Z,93.39
2023-01-29T06:48:11.607Z,93.61
2023-01-29T06:53:14.636Z,93.08
2023-01-29T06:58:18.913Z,92.44
2023-01-29T07:03:22.110Z,92.47
2023-01-29T07:08:24.875Z,92.65
2023-01-29T07:13:28.085Z,92.06
2023-01-29T07:18:31.709Z,92.08
2023-01-29T07:23:35.709Z,91.79
2023-01-29T07:28:40.387Z,91.88
2023-01-29T07:33:44.761Z,91.66
2023-01-29T07:38:51.696Z,91.60
2023-01-29T07:43:54.514Z,91.19
2023-01-29T07:49:00.147Z,91.08
2023-01-29T07:54:03.170Z,91.20
2023-01-29T07:59:06.245Z,91.02
2023-01-29T08:04:09.024Z,90.65
2023-01-29T08:09:12.096Z,90.51
2023-01-29T08:14:15.257Z,90.00
2023-01-29T08:19:18.307Z,89.34
2023-01-29T08:24:21.189Z,88.71
2023-01-29T08:29:23.980Z,88.43
2023-01-29T08:34:27.258Z,88.21
2023-01-29T08:39:30.963Z,87.86
2023-01-29T08:44:34.744Z,87.57
2023-01-29T08:49:37.634Z,87.23
2023-01-29T08:54:40.430Z,87.36
2023-01-29T08:59:43.346Z,87.26
2023-01-29T09:04:46.446Z,87.15
2023-01-29T09:09:49.470Z,86.38
2023-01-29T09:14:52.359Z,86.14
2023-01-29T09:19:55.322Z,86.04
2023-01-29T09:24:58.555Z,85.28
2023-01-29T09:30:01.597Z,84.71
2023-01-29T09:35:05.696Z,84.88
2023-01-29T09:40:22.110Z,83.85
2023-01-29T09:45:29.338Z,83.52
2023-01-29T09:50:47.430Z,82.80
2023-01-29T09:55:58.576Z,82.69
2023-01-29T10:01:22.706Z,81.60
2023-01-29T10:06:28.547Z,81.49
2023-01-29T10:11:58.104Z,80.66
2023-01-29T10:17:06.890Z,79.46
2023-01-29T10:22:49.263Z,79.06
2023-01-29T10:27:59.145Z,78.15
2023-01-29T10:33:05.484Z,77.22
2023-01-29T10:38:38.824Z,76.48
2023-01-29T10:44:03.746Z,76.28
2023-01-29T10:49:41.288Z,75.92
2023-01-29T10:55:00.912Z,76.00
2023-01-29T11:00:33.463Z,75.51
2023-01-29T11:06:19.060Z,75.85
2023-01-29T11:11:31.199Z,75.48
2023-01-29T11:16:43.482Z,74.88
2023-01-29T11:22:01.385Z,73.77
2023-01-29T11:27:24.005Z,73.66
2023-01-29T11:32:32.999Z,72.92
2023-01-29T11:37:42.699Z,71.69
2023-01-29T11:42:49.685Z,70.97
2023-01-29T11:47:57.209Z,70.59
2023-01-29T11:53:01.489Z,69.72
2023-01-29T11:58:17.063Z,69.81
2023-01-29T12:03:32.134Z,69.43
2023-01-29T12:08:40.050Z,69.55
2023-01-29T12:13:45.713Z,69.32
2023-01-29T12:19:07.416Z,68.28
2023-01-29T12:25:07.381Z,68.46
2023-01-29T12:30:52.063Z,68.21
2023-01-29T12:36:10.707Z,67.79
2023-01-29T12:41:56.024Z,67.62
2023-01-29T12:47:03.356Z,67.89
2023-01-29T12:52:22.028Z,68.15
2023-01-29T12:57:46.734Z,67.80
2023-01-29T13:03:53.517Z,68.38
2023-01-29T13:09:03.308Z,68.25
2023-01-29T13:14:28.979Z,68.32
2023-01-29T13:19:47.387Z,68.70
2023-01-29T13:25:03.587Z,68.17
2023-01-29T13:30:09.029Z,68.57
2023-01-29T13:35:15.970Z,68.93
2023-01-29T13:40:32.777Z,69.26
2023-01-29T13:45:46.168Z,69.56
2023-01-29T13:50:52.127Z,70.32
2023-01-29T13:55:55.736Z,70.46
2023-01-29T14:01:01.570Z,70.77
2023-01-29T14:06:06.222Z,71.17
2023-01-29T14:11:21.764Z,70.81
2023-01-29T14:16:24.666Z,70.54
2023-01-29T14:21:34.298Z,71.13
2023-01-29T14:26:43.814Z,70.53
2023-01-29T14:31:59.948Z,70.63
2023-01-29T14:37:18.190Z,70.97
2023-01-29T14:42:37.817Z,70.87
2023-01-29T14:47:41.301Z,70.82
2023-01-29T14:52:47.106Z,70.73
2023-01-29T14:57:51.249Z,70.83
2023-01-29T15:03:02.011Z,71.42
2023-01-29T15:08:30.245Z,71.80
2023-01-29T15:13:48.106Z,71.60
2023-01-29T15:18:57.544Z,71.87
2023-01-29T15:24:07.608Z,72.39
2023-01-29T15:29:27.592Z,71.98
2023-01-29T15:34:33.523Z,72.93
2023-01-29T15:39:44.081Z,72.19
2023-01-29T15:44:47.354Z,72.45
2023-01-29T15:49:50.406Z,72.75
2023-01-29T15:54:55.216Z,73.04
2023-01-29T15:59:59.151Z,73.43
2023-01-29T16:05:04.733Z,73.58
2023-01-29T16:10:27.805Z,73.53
2023-01-29T16:15:34.722Z,73.78
2023-01-29T16:20:50.406Z,74.27
2023-01-29T16:25:53.811Z,73.97
2023-01-29T16:31:04.100Z,74.93
2023-01-29T16:36:24.920Z,74.79
2023-01-29T16:41:38.578Z,74.31
2023-01-29T16:46:51.439Z,74.14
2023-01-29T16:51:56.577Z,74.54
2023-01-29T16:57:01.989Z,75.18
2023-01-29T17:02:17.593Z,75.85
2023-01-29T17:07:22.313Z,75.69
2023-01-29T17:12:27.561Z,75.86
2023-01-29T17:17:36.255Z,75.89
2023-01-29T17:22:39.355Z,76.52
2023-01-29T17:27:44.442Z,76.46
2023-01-29T17:32:47.671Z,76.54
2023-01-29T17:37:50.718Z,76.49
2023-01-29T17:42:53.706Z,76.87
2023-01-29T17:47:56.672Z,77.05
2023-01-29T17:52:59.570Z,77.09
2023-01-29T17:58:03.106Z,77.60
2023-01-29T18:03:05.975Z,77.67
2023-01-29T18:08:30.663Z,77.86
2023-01-29T18:13:36.179Z,78.03
2023-01-29T18:18:40.407Z,78.10
2023-01-29T18:23:43.895Z,78.70
2023-01-29T18:28:46.819Z,78.74
2023-01-29T18:33:49.918Z,78.82
2023-01-29T18:38:52.962Z,79.20
2023-01-29T18:43:56.085Z,79.39
2023-01-29T18:48:59.202Z,79.56
2023-01-29T18:54:02.487Z,79.80
2023-01-29T18:59:06.658Z,79.99
2023-01-29T19:04:09.937Z,79.85
2023-01-29T19:09:13.044Z,80.21
2023-01-29T19:14:16.565Z,80.25
2023-01-29T19:19:19.928Z,80.48
2023-01-29T19:24:23.657Z,80.83
2023-01-29T19:29:26.636Z,80.90
2023-01-29T19:34:29.521Z,81.10
2023-01-29T19:39:33.847Z,81.41
2023-01-29T19:44:38.995Z,81.25
2023-01-29T19:49:41.899Z,81.34
2023-01-29T19:54:46.894Z,81.70
2023-01-29T19:59:50.021Z,81.65
2023-01-29T20:04:52.817Z,81.92
2023-01-29T20:09:55.770Z,81.86
2023-01-29T20:14:58.784Z,81.76
2023-01-29T20:20:02.674Z,82.18
2023-01-29T20:25:06.648Z,82.21
2023-01-29T20:30:10.737Z,82.39
2023-01-29T20:35:13.691Z,82.35
2023-01-29T20:40:17.753Z,82.69
2023-01-29T20:45:22.185Z,83.09
2023-01-29T20:50:25.147Z,83.35
2023-01-29T20:55:31.668Z,83.45
2023-01-29T21:00:34.725Z,83.74
2023-01-29T21:05:37.672Z,83.66
2023-01-29T21:10:43.240Z,83.82
2023-01-29T21:15:46.459Z,83.95
2023-01-29T21:20:50.588Z,84.01
2023-01-29T21:25:53.560Z,84.21
2023-01-29T21:31:12.621Z,84.47
2023-01-29T21:36:15.629Z,84.86
2023-01-29T21:41:18.467Z,84.80
2023-01-29T21:46:21.493Z,84.99
2023-01-29T21:51:24.508Z,85.31
2023-01-29T21:56:27.589Z,85.63
2023-01-29T22:01:37.830Z,85.84
2023-01-29T22:06:41.451Z,85.93
2023-01-29T22:11:44.423Z,86.30
2023-01-29T22:16:47.356Z,86.13
2023-01-29T22:21:52.559Z,86.16
2023-01-29T22:26:55.494Z,86.15
2023-01-29T22:31:58.528Z,86.31
2023-01-29T22:37:01.890Z,86.38
2023-01-29T22:42:05.334Z,86.16
2023-01-29T22:47:08.392Z,86.04
2023-01-29T22:52:11.725Z,85.92
2023-01-29T22:57:15.967Z,86.22
2023-01-29T23:02:18.866Z,86.13
2023-01-29T23:07:21.610Z,86.44
2023-01-29T23:12:24.702Z,86.22
2023-01-29T23:17:27.613Z,86.56
2023-01-29T23:22:30.540Z,86.60
2023-01-29T23:27:34.541Z,86.68
2023-01-29T23:32:37.493Z,86.61
2023-01-29T23:37:40.278Z,86.76
2023-01-29T23:42:43.168Z,87.33
2023-01-29T23:47:46.136Z,87.04
2023-01-29T23:52:51.459Z,87.21
2023-01-29T23:57:54.573Z,87.56
